sensor_id;sensor_type;location;lat;lon;timestamp;temperature;humidity
6696;DHT22;3385;48.928;10.330;2022-07-29T00:00:07;18.70;99.90
6696;DHT22;3385;48.928;10.330;2022-07-29T00:02:34;18.70;99.90
6696;DHT22;3385;48.928;10.330;2022-07-29T00:05:00;18.70;99.90
6696;DHT22;3385;48.928;10.330;2022-07-29T00:07:26;18.70;99.90
6696;DHT22;3385;48.928;10.330;2022-07-29T00:09:52;18.70;99.90
6696;DHT22;3385;48.928;10.330;2022-07-29T00:12:19;18.70;99.90
6696;DHT22;3385;48.928;10.330;2022-07-29T00:14:46;18.60;99.90
6696;DHT22;3385;48.928;10.330;2022-07-29T00:17:11;18.60;99.90
6696;DHT22;3385;48.928;10.330;2022-07-29T00:19:37;18.60;99.90
6696;DHT22;3385;48.928;10.330;2022-07-29T00:22:03;18.60;99.90
6696;DHT22;3385;48.928;10.330;2022-07-29T00:24:29;18.50;99.90
6696;DHT22;3385;48.928;10.330;2022-07-29T00:26:54;18.50;99.90
6696;DHT22;3385;48.928;10.330;2022-07-29T00:29:20;18.40;99.90
6696;DHT22;3385;48.928;10.330;2022-07-29T00:31:46;18.30;99.90
6696;DHT22;3385;48.928;10.330;2022-07-29T00:34:11;18.20;99.90
6696;DHT22;3385;48.928;10.330;2022-07-29T00:36:56;18.20;99.90
6696;DHT22;3385;48.928;10.330;2022-07-29T00:39:22;18.20;99.90
6696;DHT22;3385;48.928;10.330;2022-07-29T00:41:48;18.20;99.90
6696;DHT22;3385;48.928;10.330;2022-07-29T00:44:14;18.20;99.90
6696;DHT22;3385;48.928;10.330;2022-07-29T00:46:40;18.30;99.90
6696;DHT22;3385;48.928;10.330;2022-07-29T00:49:06;18.30;99.90
6696;DHT22;3385;48.928;10.330;2022-07-29T00:51:35;18.20;99.90
6696;DHT22;3385;48.928;10.330;2022-07-29T00:54:02;18.20;99.90
6696;DHT22;3385;48.928;10.330;2022-07-29T00:56:30;18.10;99.90
6696;DHT22;3385;48.928;10.330;2022-07-29T00:58:57;18.10;99.90
6696;DHT22;3385;48.928;10.330;2022-07-29T01:01:23;18.10;99.90
6696;DHT22;3385;48.928;10.330;2022-07-29T01:03:49;18.20;99.90
6696;DHT22;3385;48.928;10.330;2022-07-29T01:06:17;18.10;99.90
6696;DHT22;3385;48.928;10.330;2022-07-29T01:08:44;18.10;99.90
6696;DHT22;3385;48.928;10.330;2022-07-29T01:11:11;18.10;99.90
6696;DHT22;3385;48.928;10.330;2022-07-29T01:13:37;18.10;99.90
6696;DHT22;3385;48.928;10.330;2022-07-29T01:16:13;18.10;99.90
6696;DHT22;3385;48.928;10.330;2022-07-29T01:18:46;18.00;99.90
6696;DHT22;3385;48.928;10.330;2022-07-29T01:21:51;18.10;99.90
6696;DHT22;3385;48.928;10.330;2022-07-29T01:27:47;18.20;99.90
6696;DHT22;3385;48.928;10.330;2022-07-29T01:30:17;18.30;99.90
6696;DHT22;3385;48.928;10.330;2022-07-29T01:32:44;18.30;99.90
6696;DHT22;3385;48.928;10.330;2022-07-29T01:38:01;18.40;99.90
6696;DHT22;3385;48.928;10.330;2022-07-29T01:43:17;18.30;99.90
6696;DHT22;3385;48.928;10.330;2022-07-29T01:45:53;18.30;99.90
6696;DHT22;3385;48.928;10.330;2022-07-29T01:48:27;18.30;99.90
6696;DHT22;3385;48.928;10.330;2022-07-29T01:53:44;18.10;99.90
6696;DHT22;3385;48.928;10.330;2022-07-29T01:56:13;18.00;99.90
6696;DHT22;3385;48.928;10.330;2022-07-29T01:58:41;18.00;99.90
6696;DHT22;3385;48.928;10.330;2022-07-29T02:01:09;18.00;99.90
6696;DHT22;3385;48.928;10.330;2022-07-29T02:03:38;17.90;99.90
6696;DHT22;3385;48.928;10.330;2022-07-29T02:06:05;17.80;99.90
6696;DHT22;3385;48.928;10.330;2022-07-29T02:08:33;17.80;99.90
6696;DHT22;3385;48.928;10.330;2022-07-29T02:11:00;17.80;99.90
6696;DHT22;3385;48.928;10.330;2022-07-29T02:13:28;17.80;99.90
6696;DHT22;3385;48.928;10.330;2022-07-29T02:15:56;17.80;99.90
6696;DHT22;3385;48.928;10.330;2022-07-29T02:18:23;17.70;99.90
6696;DHT22;3385;48.928;10.330;2022-07-29T02:20:52;17.70;99.90
6696;DHT22;3385;48.928;10.330;2022-07-29T02:23:21;17.70;99.90
6696;DHT22;3385;48.928;10.330;2022-07-29T02:25:55;17.60;99.90
6696;DHT22;3385;48.928;10.330;2022-07-29T02:28:25;17.60;99.90
6696;DHT22;3385;48.928;10.330;2022-07-29T02:30:54;17.60;99.90
6696;DHT22;3385;48.928;10.330;2022-07-29T02:33:22;17.60;99.90
6696;DHT22;3385;48.928;10.330;2022-07-29T02:35:49;17.60;99.90
6696;DHT22;3385;48.928;10.330;2022-07-29T02:38:16;17.60;99.90
6696;DHT22;3385;48.928;10.330;2022-07-29T02:41:04;17.60;99.90
6696;DHT22;3385;48.928;10.330;2022-07-29T02:43:33;17.60;99.90
6696;DHT22;3385;48.928;10.330;2022-07-29T02:46:00;17.60;99.90
6696;DHT22;3385;48.928;10.330;2022-07-29T02:48:36;17.60;99.90
6696;DHT22;3385;48.928;10.330;2022-07-29T02:51:15;17.60;99.90
6696;DHT22;3385;48.928;10.330;2022-07-29T02:53:44;17.60;99.90
6696;DHT22;3385;48.928;10.330;2022-07-29T02:56:14;17.50;99.90
6696;DHT22;3385;48.928;10.330;2022-07-29T02:58:46;17.50;99.90
6696;DHT22;3385;48.928;10.330;2022-07-29T03:01:21;17.40;99.90
6696;DHT22;3385;48.928;10.330;2022-07-29T03:03:49;17.40;99.90
6696;DHT22;3385;48.928;10.330;2022-07-29T03:06:18;17.40;99.90
6696;DHT22;3385;48.928;10.330;2022-07-29T03:08:45;17.40;99.90
6696;DHT22;3385;48.928;10.330;2022-07-29T03:11:11;17.40;99.90
6696;DHT22;3385;48.928;10.330;2022-07-29T03:13:38;17.40;99.90
6696;DHT22;3385;48.928;10.330;2022-07-29T03:16:05;17.40;99.90
6696;DHT22;3385;48.928;10.330;2022-07-29T03:18:31;17.30;99.90
6696;DHT22;3385;48.928;10.330;2022-07-29T03:20:57;17.20;99.90
6696;DHT22;3385;48.928;10.330;2022-07-29T03:23:24;17.20;99.90
6696;DHT22;3385;48.928;10.330;2022-07-29T03:25:51;17.10;99.90
6696;DHT22;3385;48.928;10.330;2022-07-29T03:28:17;17.10;99.90
6696;DHT22;3385;48.928;10.330;2022-07-29T03:30:43;17.10;99.90
6696;DHT22;3385;48.928;10.330;2022-07-29T03:33:09;17.10;99.90
6696;DHT22;3385;48.928;10.330;2022-07-29T03:35:35;17.00;99.90
6696;DHT22;3385;48.928;10.330;2022-07-29T03:38:00;17.00;99.90
6696;DHT22;3385;48.928;10.330;2022-07-29T03:40:31;16.90;99.90
6696;DHT22;3385;48.928;10.330;2022-07-29T03:43:00;16.70;99.90
6696;DHT22;3385;48.928;10.330;2022-07-29T03:45:27;16.50;99.90
6696;DHT22;3385;48.928;10.330;2022-07-29T03:48:01;16.40;99.90
6696;DHT22;3385;48.928;10.330;2022-07-29T03:50:29;16.40;99.90
6696;DHT22;3385;48.928;10.330;2022-07-29T03:52:56;16.40;99.90
6696;DHT22;3385;48.928;10.330;2022-07-29T03:55:22;16.30;99.90
6696;DHT22;3385;48.928;10.330;2022-07-29T03:57:49;16.30;99.90
6696;DHT22;3385;48.928;10.330;2022-07-29T04:00:16;16.30;99.90
6696;DHT22;3385;48.928;10.330;2022-07-29T04:02:43;16.30;99.90
6696;DHT22;3385;48.928;10.330;2022-07-29T04:05:15;16.30;99.90
6696;DHT22;3385;48.928;10.330;2022-07-29T04:07:44;16.30;99.90
6696;DHT22;3385;48.928;10.330;2022-07-29T04:10:10;16.30;99.90
6696;DHT22;3385;48.928;10.330;2022-07-29T04:12:36;16.20;99.90
6696;DHT22;3385;48.928;10.330;2022-07-29T04:15:03;16.10;99.90
6696;DHT22;3385;48.928;10.330;2022-07-29T04:17:29;16.10;99.90
6696;DHT22;3385;48.928;10.330;2022-07-29T04:19:55;17.60;99.90
6696;DHT22;3385;48.928;10.330;2022-07-29T04:22:20;16.10;99.90
6696;DHT22;3385;48.928;10.330;2022-07-29T04:24:46;16.00;99.90
6696;DHT22;3385;48.928;10.330;2022-07-29T04:27:12;16.00;99.90
6696;DHT22;3385;48.928;10.330;2022-07-29T04:29:38;16.00;99.90
6696;DHT22;3385;48.928;10.330;2022-07-29T04:32:04;16.00;99.90
6696;DHT22;3385;48.928;10.330;2022-07-29T04:34:29;16.00;99.90
6696;DHT22;3385;48.928;10.330;2022-07-29T04:36:55;16.00;99.90
6696;DHT22;3385;48.928;10.330;2022-07-29T04:39:21;16.10;99.90
6696;DHT22;3385;48.928;10.330;2022-07-29T04:41:47;16.20;99.90
6696;DHT22;3385;48.928;10.330;2022-07-29T04:44:13;16.20;99.90
6696;DHT22;3385;48.928;10.330;2022-07-29T04:46:39;16.20;99.90
6696;DHT22;3385;48.928;10.330;2022-07-29T04:49:04;16.20;99.90
6696;DHT22;3385;48.928;10.330;2022-07-29T04:51:30;16.20;99.90
6696;DHT22;3385;48.928;10.330;2022-07-29T04:53:56;16.20;99.90
6696;DHT22;3385;48.928;10.330;2022-07-29T04:56:22;16.30;99.90
6696;DHT22;3385;48.928;10.330;2022-07-29T04:58:48;16.40;99.90
6696;DHT22;3385;48.928;10.330;2022-07-29T05:01:14;16.40;99.90
6696;DHT22;3385;48.928;10.330;2022-07-29T05:03:40;16.50;99.90
6696;DHT22;3385;48.928;10.330;2022-07-29T05:06:06;16.50;99.90
6696;DHT22;3385;48.928;10.330;2022-07-29T05:08:32;16.50;99.90
6696;DHT22;3385;48.928;10.330;2022-07-29T05:10:58;16.60;99.90
6696;DHT22;3385;48.928;10.330;2022-07-29T05:13:24;16.70;99.90
6696;DHT22;3385;48.928;10.330;2022-07-29T05:15:49;16.90;99.90
6696;DHT22;3385;48.928;10.330;2022-07-29T05:18:15;16.90;99.90
6696;DHT22;3385;48.928;10.330;2022-07-29T05:20:41;16.90;99.90
6696;DHT22;3385;48.928;10.330;2022-07-29T05:23:07;17.00;99.90
6696;DHT22;3385;48.928;10.330;2022-07-29T05:25:33;17.00;99.90
6696;DHT22;3385;48.928;10.330;2022-07-29T05:27:58;17.10;99.90
6696;DHT22;3385;48.928;10.330;2022-07-29T05:30:24;17.20;99.90
6696;DHT22;3385;48.928;10.330;2022-07-29T05:32:50;17.20;99.90
6696;DHT22;3385;48.928;10.330;2022-07-29T05:35:16;17.30;99.90
6696;DHT22;3385;48.928;10.330;2022-07-29T05:37:42;17.30;99.90
6696;DHT22;3385;48.928;10.330;2022-07-29T05:40:08;17.40;99.90
6696;DHT22;3385;48.928;10.330;2022-07-29T05:42:34;17.60;99.90
6696;DHT22;3385;48.928;10.330;2022-07-29T05:45:01;17.70;99.90
6696;DHT22;3385;48.928;10.330;2022-07-29T05:47:27;17.90;99.90
6696;DHT22;3385;48.928;10.330;2022-07-29T05:49:52;18.00;99.90
6696;DHT22;3385;48.928;10.330;2022-07-29T05:52:20;18.10;99.90
6696;DHT22;3385;48.928;10.330;2022-07-29T05:54:47;18.20;99.90
6696;DHT22;3385;48.928;10.330;2022-07-29T05:57:20;18.30;99.90
6696;DHT22;3385;48.928;10.330;2022-07-29T05:59:46;18.40;99.90
6696;DHT22;3385;48.928;10.330;2022-07-29T06:02:12;18.40;99.90
6696;DHT22;3385;48.928;10.330;2022-07-29T06:04:38;18.50;99.90
6696;DHT22;3385;48.928;10.330;2022-07-29T06:07:04;18.60;99.90
6696;DHT22;3385;48.928;10.330;2022-07-29T06:09:30;18.70;99.90
6696;DHT22;3385;48.928;10.330;2022-07-29T06:11:56;18.80;99.90
6696;DHT22;3385;48.928;10.330;2022-07-29T06:14:23;19.00;99.90
6696;DHT22;3385;48.928;10.330;2022-07-29T06:16:49;19.00;99.90
6696;DHT22;3385;48.928;10.330;2022-07-29T06:19:15;19.10;99.90
6696;DHT22;3385;48.928;10.330;2022-07-29T06:21:42;19.30;99.90
6696;DHT22;3385;48.928;10.330;2022-07-29T06:24:10;19.30;99.90
6696;DHT22;3385;48.928;10.330;2022-07-29T06:26:36;19.40;99.90
6696;DHT22;3385;48.928;10.330;2022-07-29T06:29:01;19.50;99.90
6696;DHT22;3385;48.928;10.330;2022-07-29T06:31:27;19.70;99.90
6696;DHT22;3385;48.928;10.330;2022-07-29T06:33:53;19.80;99.90
6696;DHT22;3385;48.928;10.330;2022-07-29T06:36:18;19.80;99.90
6696;DHT22;3385;48.928;10.330;2022-07-29T06:38:44;19.90;99.90
6696;DHT22;3385;48.928;10.330;2022-07-29T06:41:10;19.90;99.90
6696;DHT22;3385;48.928;10.330;2022-07-29T06:43:39;19.80;99.90
6696;DHT22;3385;48.928;10.330;2022-07-29T06:46:16;19.80;99.90
6696;DHT22;3385;48.928;10.330;2022-07-29T06:48:45;19.80;99.90
6696;DHT22;3385;48.928;10.330;2022-07-29T06:51:12;19.80;99.90
6696;DHT22;3385;48.928;10.330;2022-07-29T06:53:39;19.80;99.90
6696;DHT22;3385;48.928;10.330;2022-07-29T06:56:06;20.10;99.90
6696;DHT22;3385;48.928;10.330;2022-07-29T06:58:34;20.30;99.90
6696;DHT22;3385;48.928;10.330;2022-07-29T07:01:05;20.30;99.90
6696;DHT22;3385;48.928;10.330;2022-07-29T07:03:31;20.30;99.90
6696;DHT22;3385;48.928;10.330;2022-07-29T07:05:57;20.40;99.90
6696;DHT22;3385;48.928;10.330;2022-07-29T07:08:23;20.50;99.90
6696;DHT22;3385;48.928;10.330;2022-07-29T07:10:50;20.60;99.90
6696;DHT22;3385;48.928;10.330;2022-07-29T07:13:16;20.60;99.90
6696;DHT22;3385;48.928;10.330;2022-07-29T07:15:43;20.60;99.90
6696;DHT22;3385;48.928;10.330;2022-07-29T07:18:09;20.50;99.90
6696;DHT22;3385;48.928;10.330;2022-07-29T07:20:35;20.40;99.90
6696;DHT22;3385;48.928;10.330;2022-07-29T07:23:02;20.50;99.90
6696;DHT22;3385;48.928;10.330;2022-07-29T07:25:28;20.50;99.90
6696;DHT22;3385;48.928;10.330;2022-07-29T07:27:54;20.50;99.90
6696;DHT22;3385;48.928;10.330;2022-07-29T07:30:20;20.50;99.90
6696;DHT22;3385;48.928;10.330;2022-07-29T07:32:46;20.60;99.90
6696;DHT22;3385;48.928;10.330;2022-07-29T07:35:12;20.60;99.90
6696;DHT22;3385;48.928;10.330;2022-07-29T07:37:39;20.70;99.90
6696;DHT22;3385;48.928;10.330;2022-07-29T07:40:09;20.80;99.90
6696;DHT22;3385;48.928;10.330;2022-07-29T07:42:37;20.90;99.90
6696;DHT22;3385;48.928;10.330;2022-07-29T07:45:04;20.90;99.90
6696;DHT22;3385;48.928;10.330;2022-07-29T07:47:31;20.90;99.90
6696;DHT22;3385;48.928;10.330;2022-07-29T07:49:57;20.90;99.90
6696;DHT22;3385;48.928;10.330;2022-07-29T07:52:23;21.10;99.90
6696;DHT22;3385;48.928;10.330;2022-07-29T07:54:49;21.20;99.90
6696;DHT22;3385;48.928;10.330;2022-07-29T07:57:15;21.30;99.90
6696;DHT22;3385;48.928;10.330;2022-07-29T07:59:41;21.40;99.90
6696;DHT22;3385;48.928;10.330;2022-07-29T08:02:08;21.50;99.90
6696;DHT22;3385;48.928;10.330;2022-07-29T08:04:35;21.60;99.90
6696;DHT22;3385;48.928;10.330;2022-07-29T08:07:01;23.70;99.90
6696;DHT22;3385;48.928;10.330;2022-07-29T08:09:28;21.70;99.90
6696;DHT22;3385;48.928;10.330;2022-07-29T08:11:54;22.10;99.90
6696;DHT22;3385;48.928;10.330;2022-07-29T08:14:20;22.30;99.90
6696;DHT22;3385;48.928;10.330;2022-07-29T08:16:46;22.50;99.90
6696;DHT22;3385;48.928;10.330;2022-07-29T08:19:12;22.50;99.90
6696;DHT22;3385;48.928;10.330;2022-07-29T08:21:38;22.50;99.90
6696;DHT22;3385;48.928;10.330;2022-07-29T08:24:04;22.60;99.90
6696;DHT22;3385;48.928;10.330;2022-07-29T08:26:49;22.90;99.90
6696;DHT22;3385;48.928;10.330;2022-07-29T08:29:15;23.10;99.90
6696;DHT22;3385;48.928;10.330;2022-07-29T08:31:41;23.20;99.90
6696;DHT22;3385;48.928;10.330;2022-07-29T08:34:07;23.10;99.90
6696;DHT22;3385;48.928;10.330;2022-07-29T08:36:33;23.00;99.90
6696;DHT22;3385;48.928;10.330;2022-07-29T08:39:00;23.00;99.90
6696;DHT22;3385;48.928;10.330;2022-07-29T08:41:26;23.10;99.90
6696;DHT22;3385;48.928;10.330;2022-07-29T08:43:52;23.20;99.90
6696;DHT22;3385;48.928;10.330;2022-07-29T08:46:19;23.70;99.90
6696;DHT22;3385;48.928;10.330;2022-07-29T08:48:45;24.10;99.90
6696;DHT22;3385;48.928;10.330;2022-07-29T08:51:16;24.20;99.90
6696;DHT22;3385;48.928;10.330;2022-07-29T08:53:43;24.10;99.90
6696;DHT22;3385;48.928;10.330;2022-07-29T08:56:13;23.90;99.90
6696;DHT22;3385;48.928;10.330;2022-07-29T08:58:40;23.80;99.90
6696;DHT22;3385;48.928;10.330;2022-07-29T09:01:07;23.90;99.90
6696;DHT22;3385;48.928;10.330;2022-07-29T09:03:36;23.90;99.90
6696;DHT22;3385;48.928;10.330;2022-07-29T09:06:02;23.90;99.90
6696;DHT22;3385;48.928;10.330;2022-07-29T09:08:29;23.80;99.90
6696;DHT22;3385;48.928;10.330;2022-07-29T09:10:56;23.80;99.90
6696;DHT22;3385;48.928;10.330;2022-07-29T09:13:22;23.90;99.90
6696;DHT22;3385;48.928;10.330;2022-07-29T09:15:48;24.20;99.90
6696;DHT22;3385;48.928;10.330;2022-07-29T09:20:58;24.40;99.90
6696;DHT22;3385;48.928;10.330;2022-07-29T09:24:14;24.60;99.90
6696;DHT22;3385;48.928;10.330;2022-07-29T09:26:43;24.80;99.90
6696;DHT22;3385;48.928;10.330;2022-07-29T09:31:41;25.40;99.90
6696;DHT22;3385;48.928;10.330;2022-07-29T09:34:08;25.60;99.90
6696;DHT22;3385;48.928;10.330;2022-07-29T09:36:47;25.90;99.90
6696;DHT22;3385;48.928;10.330;2022-07-29T09:39:14;26.30;99.90
6696;DHT22;3385;48.928;10.330;2022-07-29T09:41:47;26.40;99.90
6696;DHT22;3385;48.928;10.330;2022-07-29T09:44:13;26.50;99.90
6696;DHT22;3385;48.928;10.330;2022-07-29T09:46:40;26.20;99.90
6696;DHT22;3385;48.928;10.330;2022-07-29T09:49:17;25.90;99.90
6696;DHT22;3385;48.928;10.330;2022-07-29T09:51:43;25.80;99.90
6696;DHT22;3385;48.928;10.330;2022-07-29T09:54:27;25.90;99.90
6696;DHT22;3385;48.928;10.330;2022-07-29T09:56:54;26.00;99.90
6696;DHT22;3385;48.928;10.330;2022-07-29T09:59:21;26.20;99.90
6696;DHT22;3385;48.928;10.330;2022-07-29T10:01:49;26.30;99.90
6696;DHT22;3385;48.928;10.330;2022-07-29T10:04:16;26.60;99.90
6696;DHT22;3385;48.928;10.330;2022-07-29T10:06:58;26.70;99.90
6696;DHT22;3385;48.928;10.330;2022-07-29T10:09:25;26.80;99.90
6696;DHT22;3385;48.928;10.330;2022-07-29T10:12:09;26.80;99.90
6696;DHT22;3385;48.928;10.330;2022-07-29T10:14:35;27.00;99.90
6696;DHT22;3385;48.928;10.330;2022-07-29T10:17:02;27.30;99.90
6696;DHT22;3385;48.928;10.330;2022-07-29T10:19:29;27.40;99.90
6696;DHT22;3385;48.928;10.330;2022-07-29T10:21:59;27.50;99.90
6696;DHT22;3385;48.928;10.330;2022-07-29T10:24:31;27.20;99.90
6696;DHT22;3385;48.928;10.330;2022-07-29T10:26:59;26.90;99.90
6696;DHT22;3385;48.928;10.330;2022-07-29T10:29:25;26.90;99.90
6696;DHT22;3385;48.928;10.330;2022-07-29T10:43:43;27.50;99.90
6696;DHT22;3385;48.928;10.330;2022-07-29T10:46:10;27.60;99.90
6696;DHT22;3385;48.928;10.330;2022-07-29T10:54:19;27.80;99.90
6696;DHT22;3385;48.928;10.330;2022-07-29T10:56:45;27.70;99.90
6696;DHT22;3385;48.928;10.330;2022-07-29T11:01:50;27.90;99.90
6696;DHT22;3385;48.928;10.330;2022-07-29T11:07:10;28.40;99.90
6696;DHT22;3385;48.928;10.330;2022-07-29T11:09:36;28.70;99.90
6696;DHT22;3385;48.928;10.330;2022-07-29T11:12:02;29.00;99.90
6696;DHT22;3385;48.928;10.330;2022-07-29T11:14:59;28.90;99.90
6696;DHT22;3385;48.928;10.330;2022-07-29T11:17:26;28.80;99.90
6696;DHT22;3385;48.928;10.330;2022-07-29T11:25:31;28.70;98.20
6696;DHT22;3385;48.928;10.330;2022-07-29T11:28:13;29.10;95.80
6696;DHT22;3385;48.928;10.330;2022-07-29T11:30:48;29.30;96.70
6696;DHT22;3385;48.928;10.330;2022-07-29T11:33:31;29.20;96.00
6696;DHT22;3385;48.928;10.330;2022-07-29T11:36:14;29.10;96.10
6696;DHT22;3385;48.928;10.330;2022-07-29T11:38:40;29.10;95.30
6696;DHT22;3385;48.928;10.330;2022-07-29T11:41:24;29.10;93.80
6696;DHT22;3385;48.928;10.330;2022-07-29T11:43:52;29.00;93.80
6696;DHT22;3385;48.928;10.330;2022-07-29T11:46:45;29.10;94.60
6696;DHT22;3385;48.928;10.330;2022-07-29T11:49:26;29.10;93.00
6696;DHT22;3385;48.928;10.330;2022-07-29T11:51:57;29.00;93.50
6696;DHT22;3385;48.928;10.330;2022-07-29T11:54:33;28.90;94.00
6696;DHT22;3385;48.928;10.330;2022-07-29T11:57:00;29.00;93.30
6696;DHT22;3385;48.928;10.330;2022-07-29T11:59:26;28.90;93.60
6696;DHT22;3385;48.928;10.330;2022-07-29T12:01:57;29.00;93.80
6696;DHT22;3385;48.928;10.330;2022-07-29T12:04:23;28.90;93.10
6696;DHT22;3385;48.928;10.330;2022-07-29T12:06:50;28.80;93.20
6696;DHT22;3385;48.928;10.330;2022-07-29T12:09:17;28.70;92.70
6696;DHT22;3385;48.928;10.330;2022-07-29T12:11:43;28.50;93.20
6696;DHT22;3385;48.928;10.330;2022-07-29T12:14:09;28.40;93.10
6696;DHT22;3385;48.928;10.330;2022-07-29T12:16:37;28.40;93.30
6696;DHT22;3385;48.928;10.330;2022-07-29T12:19:04;28.00;99.90
6696;DHT22;3385;48.928;10.330;2022-07-29T12:24:10;26.60;99.90
6696;DHT22;3385;48.928;10.330;2022-07-29T12:26:36;25.80;99.90
6696;DHT22;3385;48.928;10.330;2022-07-29T12:29:17;25.30;99.90
6696;DHT22;3385;48.928;10.330;2022-07-29T12:31:44;25.10;99.90
6696;DHT22;3385;48.928;10.330;2022-07-29T12:34:15;25.10;99.90
6696;DHT22;3385;48.928;10.330;2022-07-29T12:36:42;24.90;99.90
6696;DHT22;3385;48.928;10.330;2022-07-29T12:39:08;24.90;99.90
6696;DHT22;3385;48.928;10.330;2022-07-29T12:41:35;24.90;99.90
6696;DHT22;3385;48.928;10.330;2022-07-29T12:44:01;24.80;99.90
6696;DHT22;3385;48.928;10.330;2022-07-29T12:46:26;24.60;99.90
6696;DHT22;3385;48.928;10.330;2022-07-29T12:48:54;24.50;99.90
6696;DHT22;3385;48.928;10.330;2022-07-29T12:51:46;24.60;99.90
6696;DHT22;3385;48.928;10.330;2022-07-29T12:54:13;24.60;99.90
6696;DHT22;3385;48.928;10.330;2022-07-29T12:56:41;24.60;99.90
6696;DHT22;3385;48.928;10.330;2022-07-29T12:59:18;24.60;99.90
6696;DHT22;3385;48.928;10.330;2022-07-29T13:01:46;24.60;99.90
6696;DHT22;3385;48.928;10.330;2022-07-29T13:04:32;24.90;99.90
6696;DHT22;3385;48.928;10.330;2022-07-29T13:07:03;25.20;99.90
6696;DHT22;3385;48.928;10.330;2022-07-29T13:09:38;25.50;99.50
6696;DHT22;3385;48.928;10.330;2022-07-29T13:12:12;25.50;99.30
6696;DHT22;3385;48.928;10.330;2022-07-29T13:14:40;25.60;99.10
6696;DHT22;3385;48.928;10.330;2022-07-29T13:17:12;25.60;99.00
6696;DHT22;3385;48.928;10.330;2022-07-29T13:19:49;25.50;98.90
6696;DHT22;3385;48.928;10.330;2022-07-29T13:22:21;25.40;98.50
6696;DHT22;3385;48.928;10.330;2022-07-29T13:24:52;25.20;98.30
6696;DHT22;3385;48.928;10.330;2022-07-29T13:27:20;25.00;98.20
6696;DHT22;3385;48.928;10.330;2022-07-29T13:29:46;24.90;98.40
6696;DHT22;3385;48.928;10.330;2022-07-29T13:32:12;24.80;98.90
6696;DHT22;3385;48.928;10.330;2022-07-29T13:34:39;24.70;99.10
6696;DHT22;3385;48.928;10.330;2022-07-29T13:37:05;24.60;99.60
6696;DHT22;3385;48.928;10.330;2022-07-29T13:39:31;24.60;99.90
6696;DHT22;3385;48.928;10.330;2022-07-29T13:41:57;24.60;99.90
6696;DHT22;3385;48.928;10.330;2022-07-29T13:44:23;24.60;99.90
6696;DHT22;3385;48.928;10.330;2022-07-29T13:46:48;24.60;99.90
6696;DHT22;3385;48.928;10.330;2022-07-29T13:49:14;24.90;99.90
6696;DHT22;3385;48.928;10.330;2022-07-29T13:51:40;25.30;99.90
6696;DHT22;3385;48.928;10.330;2022-07-29T13:54:06;25.70;99.90
6696;DHT22;3385;48.928;10.330;2022-07-29T13:56:31;25.90;99.90
6696;DHT22;3385;48.928;10.330;2022-07-29T13:58:57;26.10;99.20
6696;DHT22;3385;48.928;10.330;2022-07-29T14:01:23;26.10;98.80
6696;DHT22;3385;48.928;10.330;2022-07-29T14:03:49;26.10;98.40
6696;DHT22;3385;48.928;10.330;2022-07-29T14:06:15;26.10;98.00
6696;DHT22;3385;48.928;10.330;2022-07-29T14:08:41;26.10;97.90
6696;DHT22;3385;48.928;10.330;2022-07-29T14:11:07;26.00;98.30
6696;DHT22;3385;48.928;10.330;2022-07-29T14:13:32;26.00;98.20
6696;DHT22;3385;48.928;10.330;2022-07-29T14:15:58;26.00;98.50
6696;DHT22;3385;48.928;10.330;2022-07-29T14:18:24;25.90;98.10
6696;DHT22;3385;48.928;10.330;2022-07-29T14:20:50;26.00;97.70
6696;DHT22;3385;48.928;10.330;2022-07-29T14:23:17;26.00;98.20
6696;DHT22;3385;48.928;10.330;2022-07-29T14:25:42;26.00;98.20
6696;DHT22;3385;48.928;10.330;2022-07-29T14:28:08;25.80;99.40
6696;DHT22;3385;48.928;10.330;2022-07-29T14:30:34;25.90;99.10
6696;DHT22;3385;48.928;10.330;2022-07-29T14:33:00;25.80;98.90
6696;DHT22;3385;48.928;10.330;2022-07-29T14:35:26;25.70;99.90
6696;DHT22;3385;48.928;10.330;2022-07-29T14:37:51;25.60;99.90
6696;DHT22;3385;48.928;10.330;2022-07-29T14:40:17;25.50;99.90
6696;DHT22;3385;48.928;10.330;2022-07-29T14:42:43;25.40;99.90
6696;DHT22;3385;48.928;10.330;2022-07-29T14:45:09;25.30;99.90
6696;DHT22;3385;48.928;10.330;2022-07-29T14:47:36;25.00;99.90
6696;DHT22;3385;48.928;10.330;2022-07-29T14:50:03;24.90;99.90
6696;DHT22;3385;48.928;10.330;2022-07-29T14:52:29;25.00;99.90
6696;DHT22;3385;48.928;10.330;2022-07-29T14:54:55;25.00;99.90
6696;DHT22;3385;48.928;10.330;2022-07-29T14:57:20;25.10;99.90
6696;DHT22;3385;48.928;10.330;2022-07-29T14:59:46;25.20;99.90
6696;DHT22;3385;48.928;10.330;2022-07-29T15:02:12;25.20;99.90
6696;DHT22;3385;48.928;10.330;2022-07-29T15:04:38;25.20;99.90
6696;DHT22;3385;48.928;10.330;2022-07-29T15:07:03;25.10;99.90
6696;DHT22;3385;48.928;10.330;2022-07-29T15:09:29;25.00;99.90
6696;DHT22;3385;48.928;10.330;2022-07-29T15:11:55;24.70;99.90
6696;DHT22;3385;48.928;10.330;2022-07-29T15:14:21;24.60;99.90
6696;DHT22;3385;48.928;10.330;2022-07-29T15:16:47;24.60;99.90
6696;DHT22;3385;48.928;10.330;2022-07-29T15:19:12;24.60;99.90
6696;DHT22;3385;48.928;10.330;2022-07-29T15:21:38;24.70;99.90
6696;DHT22;3385;48.928;10.330;2022-07-29T15:24:04;24.60;99.90
6696;DHT22;3385;48.928;10.330;2022-07-29T15:26:32;24.50;99.90
6696;DHT22;3385;48.928;10.330;2022-07-29T15:28:58;24.60;99.90
6696;DHT22;3385;48.928;10.330;2022-07-29T15:31:24;24.60;99.90
6696;DHT22;3385;48.928;10.330;2022-07-29T15:33:50;24.60;99.90
6696;DHT22;3385;48.928;10.330;2022-07-29T15:36:16;24.60;99.90
6696;DHT22;3385;48.928;10.330;2022-07-29T15:38:41;24.60;99.90
6696;DHT22;3385;48.928;10.330;2022-07-29T15:41:09;24.40;99.90
6696;DHT22;3385;48.928;10.330;2022-07-29T15:43:43;24.30;99.90
6696;DHT22;3385;48.928;10.330;2022-07-29T15:46:17;24.20;99.90
6696;DHT22;3385;48.928;10.330;2022-07-29T15:49:02;24.00;99.90
6696;DHT22;3385;48.928;10.330;2022-07-29T15:51:28;23.90;99.90
6696;DHT22;3385;48.928;10.330;2022-07-29T15:53:54;23.80;99.90
6696;DHT22;3385;48.928;10.330;2022-07-29T15:56:21;23.80;99.90
6696;DHT22;3385;48.928;10.330;2022-07-29T15:58:47;23.70;99.90
6696;DHT22;3385;48.928;10.330;2022-07-29T16:01:13;23.60;99.90
6696;DHT22;3385;48.928;10.330;2022-07-29T16:03:40;23.50;99.90
6696;DHT22;3385;48.928;10.330;2022-07-29T16:06:06;23.50;99.90
6696;DHT22;3385;48.928;10.330;2022-07-29T16:08:32;23.50;99.90
6696;DHT22;3385;48.928;10.330;2022-07-29T16:10:57;23.40;99.90
6696;DHT22;3385;48.928;10.330;2022-07-29T16:13:23;23.40;99.90
6696;DHT22;3385;48.928;10.330;2022-07-29T16:15:49;23.40;99.90
6696;DHT22;3385;48.928;10.330;2022-07-29T16:18:15;23.30;99.90
6696;DHT22;3385;48.928;10.330;2022-07-29T16:20:41;23.30;99.90
6696;DHT22;3385;48.928;10.330;2022-07-29T16:23:07;23.20;99.90
6696;DHT22;3385;48.928;10.330;2022-07-29T16:25:38;23.20;99.90
6696;DHT22;3385;48.928;10.330;2022-07-29T16:28:04;23.20;99.90
6696;DHT22;3385;48.928;10.330;2022-07-29T16:30:30;23.30;99.90
6696;DHT22;3385;48.928;10.330;2022-07-29T16:32:59;23.30;99.90
6696;DHT22;3385;48.928;10.330;2022-07-29T16:35:24;23.30;99.90
6696;DHT22;3385;48.928;10.330;2022-07-29T16:37:50;23.30;99.90